Terminal Aerodrome Forecast
Issued by NWS

Home | Current Version | Previous Version | Text Only | Print | Product List | Glossary On
Versions: 1 2 3 4 5 6 7 8 9 10 11 12 13 14 15 16
000
FTUS43 KJKL 082100 AAA
TAFSME
TAF AMD
KSME 082101Z 0821/0918 26014G24KT P6SM VCTS SCT040CB BKN100
     FM090000 24007KT P6SM VCTS SCT030CB BKN050
     FM090900 25004KT 6SM BR BKN015 OVC030
     FM091500 26007KT P6SM SCT020 BKN035=

USA.gov is the U.S. government's official web portal to all federal, state and local government web resources and services.